.
WxDataArchive / Data Records for 2007-05-20
2007-05-19 May 2007 2007-05-21

Data Records for Sunday, 20 May 2007

Time	Temp	Chill	HIndex	Humid	Dewpt	 Wind 	HiWind	WindDir	Rain 	Barom 
-----	----	-----	------	-----	-----	------	------	-------	-----	----- 
00:00	63.9	63.9	63.9	40	39.1	2	4	248	0.00	29.975 
00:05	63.9	63.9	63.9	41	39.7	1	4	248	0.00	29.970 
00:10	63.9	63.9	63.9	41	39.7	2	4	248	0.00	29.970 
00:15	63.7	63.7	63.7	41	39.6	2	6	270	0.00	29.971 
00:20	63.7	63.7	63.7	42	40.2	2	7	248	0.00	29.970 
00:25	63.5	63.5	63.5	41	39.4	1	5	248	0.00	29.971 
00:30	63.4	63.4	63.4	41	39.3	1	6	248	0.00	29.970 
00:35	63.2	63.2	63.2	42	39.7	2	4	248	0.00	29.970 
00:40	63.2	63.2	63.2	42	39.7	2	6	248	0.00	29.970 
00:45	63.2	63.2	63.2	42	39.7	2	5	248	0.00	29.970 
00:50	63.2	63.2	63.2	43	40.3	1	3	248	0.00	29.970 
00:55	63.1	63.1	63.1	43	40.2	1	4	270	0.00	29.970 
01:00	62.9	62.9	62.9	43	40.1	1	3	248	0.00	29.969 
01:05	62.9	62.9	62.9	43	40.1	1	3	248	0.00	29.968 
01:10	62.9	62.9	62.9	43	40.1	1	5	248	0.00	29.968 
01:15	62.9	62.9	62.9	44	40.6	1	5	248	0.00	29.967 
01:20	62.7	62.7	62.7	43	39.9	1	3	248	0.00	29.967 
01:25	62.9	62.9	62.9	44	40.6	1	3	248	0.00	29.967 
01:30	62.9	62.9	62.9	43	40.1	1	4	248	0.00	29.967 
01:35	62.7	62.7	62.7	44	40.5	1	3	248	0.00	29.967 
01:40	62.7	62.7	62.7	44	40.5	1	2	248	0.00	29.967 
01:45	62.7	62.7	62.7	44	40.5	1	2	248	0.00	29.967 
01:50	62.7	62.7	62.7	44	40.5	1	4	248	0.00	29.967 
01:55	62.7	62.7	62.7	44	40.5	1	3	270	0.00	29.967 
02:00	62.9	62.9	62.9	44	40.6	1	2	270	0.00	29.967 
02:05	62.9	62.9	62.9	45	41.2	1	2	248	0.00	29.965 
02:10	62.9	62.9	62.9	45	41.2	1	3	248	0.00	29.964 
02:15	63.1	63.1	63.1	44	40.8	1	3	270	0.00	29.964 
02:20	63.2	63.2	63.2	44	40.9	1	3	270	0.00	29.964 
02:25	63.2	63.2	63.2	43	40.3	2	3	248	0.00	29.965 
02:30	63.2	63.2	63.2	44	40.9	1	3	248	0.00	29.964 
02:35	63.2	63.2	63.2	44	40.9	1	3	248	0.00	29.963 
02:40	63.2	63.2	63.2	44	40.9	1	4	248	0.00	29.961 
02:45	63.2	63.2	63.2	44	40.9	1	3	248	0.00	29.961 
02:50	63.2	63.2	63.2	44	40.9	1	3	270	0.00	29.962 
02:55	63.1	63.1	63.1	45	41.4	1	3	270	0.00	29.960 
03:00	63.1	63.1	63.1	46	42.0	1	4	248	0.00	29.959 
03:05	63.1	63.1	63.1	45	41.4	1	3	248	0.00	29.959 
03:10	63.1	63.1	63.1	45	41.4	1	3	248	0.00	29.959 
03:15	63.1	63.1	63.1	45	41.4	0	2	248	0.00	29.955 
03:20	62.9	62.9	62.9	45	41.2	1	3	248	0.00	29.954 
03:25	62.9	62.9	62.9	46	41.8	1	2	248	0.00	29.953 
03:30	62.7	62.7	62.7	46	41.6	1	3	248	0.00	29.951 
03:35	62.7	62.7	62.7	46	41.6	1	3	248	0.00	29.951 
03:40	62.6	62.6	62.6	46	41.5	1	4	248	0.00	29.950 
03:45	62.6	62.6	62.6	46	41.5	1	3	292	0.00	29.951 
03:50	62.6	62.6	62.6	47	42.1	1	3	292	0.00	29.951 
03:55	62.6	62.6	62.6	47	42.1	1	4	270	0.00	29.950 
04:00	62.6	62.6	62.6	48	42.6	0	2	270	0.00	29.950 
04:05	62.4	62.4	62.4	47	41.9	1	3	270	0.00	29.951 
04:10	62.6	62.6	62.6	47	42.1	1	3	270	0.00	29.950 
04:15	62.7	62.7	62.7	47	42.2	1	5	248	0.00	29.950 
04:20	62.7	62.7	62.7	47	42.2	1	3	248	0.00	29.950 
04:25	62.9	62.9	62.9	47	42.4	1	3	248	0.00	29.950 
04:30	62.9	62.9	62.9	47	42.4	1	2	248	0.00	29.950 
04:35	62.7	62.7	62.7	48	42.7	1	3	248	0.00	29.950 
04:40	62.9	62.9	62.9	48	42.9	2	4	248	0.00	29.950 
04:45	62.9	62.9	62.9	47	42.4	1	4	270	0.00	29.950 
04:50	62.9	62.9	62.9	48	42.9	2	4	248	0.00	29.951 
04:55	62.9	62.9	62.9	48	42.9	2	4	248	0.00	29.952 
05:00	62.9	62.9	62.9	47	42.4	2	4	248	0.00	29.951 
05:05	62.7	62.7	62.7	48	42.7	1	3	270	0.00	29.952 
05:10	62.7	62.7	62.7	48	42.7	2	4	270	0.00	29.953 
05:15	62.7	62.7	62.7	48	42.7	1	4	248	0.00	29.953 
05:20	62.6	62.6	62.6	48	42.6	2	4	248	0.00	29.953 
05:25	62.6	62.6	62.6	48	42.6	2	5	248	0.00	29.954 
05:30	62.6	62.6	62.6	49	43.2	1	4	248	0.00	29.954 
05:35	62.4	62.4	62.4	49	43.0	1	3	248	0.00	29.957 
05:40	62.3	62.3	62.3	50	43.4	2	4	248	0.00	29.958 
05:45	62.3	62.3	62.3	50	43.4	1	3	248	0.00	29.960 
05:50	62.1	62.1	62.1	50	43.2	1	2	292	0.00	29.962 
05:55	62.0	62.0	62.0	51	43.7	1	3	270	0.00	29.963 
06:00	62.0	62.0	62.0	51	43.7	1	3	270	0.00	29.964 
06:05	62.0	62.0	62.0	51	43.7	1	3	248	0.00	29.965 
06:10	62.1	62.1	62.1	51	43.8	2	5	248	0.00	29.966 
06:15	62.1	62.1	62.1	52	44.3	1	4	248	0.00	29.968 
06:20	62.1	62.1	62.1	51	43.8	2	4	248	0.00	29.968 
06:25	62.1	62.1	62.1	51	43.8	2	4	248	0.00	29.969 
06:30	62.0	62.0	62.0	52	44.2	1	3	248	0.00	29.970 
06:35	62.0	62.0	62.0	53	44.7	1	2	270	0.00	29.972 
06:40	61.8	61.8	61.8	53	44.5	1	4	248	0.00	29.971 
06:45	61.8	61.8	61.8	54	45.0	1	3	248	0.00	29.971 
06:50	61.6	61.6	61.6	55	45.3	1	3	248	0.00	29.970 
06:55	61.8	61.8	61.8	54	45.0	1	3	248	0.00	29.970 
07:00	62.3	62.3	62.3	53	44.9	1	3	270	0.00	29.969 
07:05	62.6	62.6	62.6	54	45.7	1	4	270	0.00	29.976 
07:10	63.1	63.1	63.1	54	46.2	2	4	270	0.00	29.975 
07:15	63.4	63.4	63.4	53	46.0	2	4	270	0.00	29.973 
07:20	63.7	63.7	63.7	52	45.7	2	5	270	0.00	29.976 
07:25	63.9	63.9	63.9	52	45.9	2	4	270	0.00	29.975 
07:30	63.7	63.7	63.7	52	45.7	2	4	270	0.00	29.976 
07:35	63.5	63.5	63.5	53	46.1	2	3	292	0.00	29.975 
07:40	63.9	63.9	63.9	54	46.9	1	2	292	0.00	29.975 
07:45	63.9	63.9	63.9	54	46.9	2	4	270	0.00	29.975 
07:50	63.7	63.7	63.7	54	46.7	1	2	270	0.00	29.976 
07:55	64.0	64.0	64.0	54	47.0	1	3	270	0.00	29.978 
08:00	64.5	64.5	64.5	54	47.5	1	3	270	0.00	29.975 
08:05	65.3	65.3	65.3	53	47.7	2	4	248	0.00	29.981 
08:10	65.8	65.8	65.8	51	47.2	2	5	292	0.00	29.982 
08:15	66.1	66.1	66.1	52	48.0	2	4	248	0.00	29.984 
08:20	66.6	66.6	66.6	53	48.9	2	5	270	0.00	29.986 
08:25	67.1	67.1	67.1	51	48.4	2	5	315	0.00	29.986 
08:30	67.6	67.6	67.6	51	48.8	2	6	338	0.00	29.984 
08:35	68.3	68.3	68.3	52	50.0	2	4	292	0.00	29.983 
08:40	68.6	68.6	68.6	50	49.2	2	5	292	0.00	29.985 
08:45	68.9	68.9	68.9	50	49.5	1	4	315	0.00	29.985 
08:50	69.3	69.3	69.3	48	48.8	2	4	292	0.00	29.985 
08:55	69.1	69.1	69.1	49	49.1	2	4	338	0.00	29.986 
09:00	69.4	69.4	69.4	50	49.9	1	3	292	0.00	29.986 
09:05	69.6	69.6	69.6	50	50.1	3	5	270	0.00	29.989 
09:10	69.6	69.6	69.6	50	50.1	2	6	315	0.00	29.988 
09:15	69.8	69.8	69.8	48	49.2	2	5	315	0.00	29.988 
09:20	70.3	70.3	70.3	50	50.8	3	5	270	0.00	29.988 
09:25	70.4	70.4	70.4	49	50.3	2	4	270	0.00	29.987 
09:30	70.8	70.8	70.8	50	51.2	3	5	315	0.00	29.984 
09:35	71.1	71.1	71.1	50	51.5	2	4	292	0.00	29.984 
09:40	71.5	71.5	71.5	48	50.8	2	4	315	0.00	29.985 
09:45	72.0	72.0	72.0	48	51.2	2	5	270	0.00	29.981 
09:50	72.1	72.1	72.1	47	50.7	2	6	338	0.00	29.984 
09:55	72.3	72.3	72.3	49	52.1	2	4	248	0.00	29.981 
10:00	72.7	72.7	72.7	51	53.5	2	5	270	0.00	29.980 
10:05	72.8	72.8	72.8	49	52.5	2	5	338	0.00	29.979 
10:10	73.2	73.2	73.2	51	54.0	2	6	292	0.00	29.979 
10:15	73.0	73.0	73.0	48	52.1	2	6	0	0.00	29.976 
10:20	73.3	73.3	73.3	49	53.0	1	4	338	0.00	29.979 
10:25	73.3	73.3	73.3	50	53.5	3	4	270	0.00	29.977 
10:30	73.3	73.3	73.3	49	53.0	3	7	315	0.00	29.979 
10:35	73.5	73.5	73.5	47	52.0	3	5	270	0.00	29.972 
10:40	73.7	73.7	73.7	48	52.8	2	5	292	0.00	29.976 
10:45	74.0	74.0	74.0	47	52.5	2	5	292	0.00	29.975 
10:50	74.2	74.2	74.2	50	54.3	2	5	270	0.00	29.975 
10:55	74.4	74.4	74.4	48	53.4	2	4	270	0.00	29.976 
11:00	74.4	74.4	74.4	47	52.8	2	5	315	0.00	29.974 
11:05	74.2	74.2	74.2	47	52.7	2	4	292	0.00	29.972 
11:10	74.2	74.2	74.2	48	53.2	2	4	270	0.00	29.969 
11:15	74.4	74.4	74.4	48	53.4	2	5	315	0.00	29.969 
11:20	74.7	74.7	74.7	48	53.7	2	4	270	0.00	29.970 
11:25	75.1	75.1	77.7	48	54.1	2	4	270	0.00	29.971 
11:30	75.1	75.1	77.7	48	54.1	2	6	248	0.00	29.970 
11:35	75.1	75.1	77.7	47	53.5	2	6	270	0.00	29.967 
11:40	74.7	74.7	74.7	49	54.3	2	4	315	0.00	29.967 
11:45	75.1	75.1	77.7	48	54.1	3	5	270	0.00	29.967 
11:50	75.1	75.1	77.7	47	53.5	3	5	270	0.00	29.967 
11:55	75.3	75.3	77.7	48	54.2	2	5	270	0.00	29.965 
12:00	75.6	75.6	77.9	47	53.9	2	4	270	0.00	29.963 
12:05	75.4	75.4	77.8	48	54.3	2	4	315	0.00	29.966 
12:10	75.6	75.6	77.9	47	53.9	2	5	248	0.00	29.965 
12:15	75.8	75.8	77.9	47	54.1	2	4	270	0.00	29.964 
12:20	76.1	76.1	78.1	48	55.0	2	5	248	0.00	29.964 
12:25	76.3	76.3	78.1	46	54.0	2	5	248	0.00	29.965 
12:30	76.5	76.5	78.2	46	54.2	2	5	292	0.00	29.962 
12:35	76.3	76.3	78.1	46	54.0	2	4	338	0.00	29.964 
12:40	76.1	76.1	78.1	47	54.4	2	4	315	0.00	29.963 
12:45	76.5	76.5	78.3	49	55.9	2	4	338	0.00	29.963 
12:50	76.7	76.7	78.4	47	54.9	2	3	292	0.00	29.962 
12:55	77.4	77.4	78.7	47	55.6	1	3	270	0.00	29.961 
13:00	77.4	77.4	78.6	45	54.4	2	4	315	0.00	29.961 
13:05	77.6	77.6	78.8	46	55.2	2	4	248	0.00	29.959 
13:10	77.6	77.6	78.8	45	54.6	2	5	270	0.00	29.958 
13:15	77.4	77.4	78.6	44	53.8	2	4	270	0.00	29.958 
13:20	77.2	77.2	78.5	45	54.2	2	5	270	0.00	29.960 
13:25	77.2	77.2	78.7	48	56.0	1	3	338	0.00	29.958 
13:30	77.4	77.4	78.6	45	54.4	2	4	315	0.00	29.957 
13:35	77.0	77.0	78.4	44	53.4	2	5	248	0.00	29.962 
13:40	76.8	76.8	78.4	47	55.0	2	4	315	0.00	29.961 
13:45	76.3	76.3	78.2	47	54.6	2	3	270	0.00	29.962 
13:50	75.8	75.8	77.9	47	54.1	2	5	270	0.00	29.963 
13:55	76.1	76.1	78.1	47	54.4	2	5	270	0.00	29.963 
14:00	75.8	75.8	77.9	47	54.1	2	5	315	0.00	29.964 
14:05	75.8	75.8	78.0	48	54.7	2	5	315	0.00	29.964 
14:10	76.0	76.0	78.0	47	54.3	3	7	248	0.00	29.964 
14:15	75.1	75.1	77.7	47	53.5	3	7	270	0.00	29.965 
14:20	74.7	74.7	74.7	49	54.3	2	5	338	0.00	29.965 
14:25	74.6	74.6	74.6	48	53.6	2	5	292	0.00	29.966 
14:30	74.6	74.6	74.6	50	54.7	2	7	292	0.00	29.965 
14:35	74.2	74.2	74.2	51	54.9	2	4	315	0.00	29.967 
14:40	74.0	74.0	74.0	49	53.6	1	3	338	0.00	29.967 
14:45	74.4	74.4	74.4	50	54.5	1	3	338	0.00	29.967 
14:50	74.4	74.4	74.4	49	54.0	2	6	270	0.00	29.969 
14:55	74.6	74.6	74.6	49	54.2	2	4	315	0.00	29.972 
15:00	74.9	74.9	74.9	50	55.0	1	3	315	0.00	29.969 
15:05	75.4	75.4	77.8	49	54.9	2	4	315	0.00	29.968 
15:10	75.8	75.8	77.9	47	54.1	1	3	292	0.00	29.967 
15:15	75.4	75.4	77.8	48	54.3	1	3	292	0.00	29.966 
15:20	74.7	74.7	74.7	50	54.8	2	4	292	0.00	29.967 
15:25	74.4	74.4	74.4	50	54.5	1	4	292	0.00	29.967 
15:30	74.7	74.7	74.7	51	55.4	2	5	315	0.00	29.967 
15:35	74.7	74.7	74.7	51	55.4	2	4	248	0.00	29.970 
15:40	74.2	74.2	74.2	51	54.9	2	3	270	0.00	29.972 
15:45	74.0	74.0	74.0	53	55.8	2	4	315	0.00	29.974 
15:50	73.9	73.9	73.9	52	55.1	1	3	315	0.00	29.974 
15:55	74.4	74.4	74.4	51	55.1	2	3	292	0.00	29.975 
16:00	74.0	74.0	74.0	50	54.2	2	3	270	0.00	29.977 
16:05	74.2	74.2	74.2	52	55.4	2	5	292	0.00	29.977 
16:10	73.9	73.9	73.9	51	54.6	3	6	270	0.00	29.978 
16:15	73.7	73.7	73.7	51	54.4	2	3	270	0.00	29.978 
16:20	73.0	73.0	73.0	52	54.3	2	4	338	0.00	29.978 
16:25	72.3	72.3	72.3	54	54.7	1	3	338	0.00	29.977 
16:30	72.1	72.1	72.1	54	54.5	1	4	338	0.00	29.977 
16:35	72.7	72.7	72.7	56	56.1	1	3	248	0.00	29.976 
16:40	72.3	72.3	72.3	55	55.2	2	6	270	0.00	29.977 
16:45	72.0	72.0	72.0	55	54.9	1	4	315	0.00	29.978 
16:50	72.1	72.1	72.1	55	55.0	1	5	292	0.00	29.975 
16:55	72.3	72.3	72.3	55	55.2	1	4	315	0.00	29.974 
17:00	72.7	72.7	72.7	54	55.1	1	2	315	0.00	29.973 
17:05	72.8	72.8	72.8	56	56.2	1	3	315	0.00	29.970 
17:10	72.8	72.8	72.8	56	56.2	1	2	315	0.00	29.969 
17:15	72.7	72.7	72.7	54	55.1	1	3	292	0.00	29.970 
17:20	72.3	72.3	72.3	55	55.2	1	3	315	0.00	29.971 
17:25	72.5	72.5	72.5	55	55.4	1	3	338	0.00	29.971 
17:30	72.5	72.5	72.5	56	55.9	1	4	270	0.00	29.969 
17:35	72.5	72.5	72.5	56	55.9	1	3	225	0.00	29.970 
17:40	72.0	72.0	72.0	57	55.9	0	1	292	0.00	29.968 
17:45	71.6	71.6	71.6	59	56.5	0	2	292	0.00	29.968 
17:50	71.3	71.3	71.3	59	56.2	0	1	315	0.00	29.969 
17:55	71.1	71.1	71.1	59	56.0	0	2	315	0.00	29.969 
18:00	70.9	70.9	70.9	60	56.3	0	3	292	0.00	29.970 
18:05	70.8	70.8	70.8	60	56.2	0	2	270	0.00	29.970 
18:10	70.4	70.4	70.4	60	55.8	0	2	270	0.00	29.969 
18:15	70.3	70.3	70.3	62	56.7	0	1	270	0.00	29.968 
18:20	70.1	70.1	70.1	62	56.5	0	1	270	0.00	29.968 
18:25	70.1	70.1	70.1	62	56.5	0	1	270	0.00	29.969 
18:30	69.9	69.9	69.9	62	56.3	0	1	270	0.00	29.973 
18:35	69.9	69.9	69.9	62	56.3	0	1	270	0.00	29.974 
18:40	69.8	69.8	69.8	63	56.6	0	1	270	0.00	29.976 
18:45	69.6	69.6	69.6	64	56.9	0	1	270	0.00	29.981 
18:50	69.4	69.4	69.4	65	57.1	0	2	270	0.00	29.984 
18:55	69.1	69.1	69.1	65	56.8	0	1	270	0.00	29.984 
19:00	68.9	68.9	68.9	66	57.1	0	1	270	0.00	29.985 
19:05	68.9	68.9	68.9	65	56.6	0	1	270	0.00	29.984 
19:10	68.8	68.8	68.8	65	56.5	1	3	270	0.00	29.985 
19:15	68.6	68.6	68.6	65	56.4	0	1	270	0.00	29.984 
19:20	68.4	68.4	68.4	65	56.2	1	3	270	0.00	29.989 
19:25	68.3	68.3	68.3	66	56.5	0	1	270	0.00	29.987 
19:30	67.9	67.9	67.9	69	57.3	0	1	270	0.00	29.991 
19:35	67.4	67.4	67.4	69	56.9	0	1	270	0.00	29.995 
19:40	67.3	67.3	67.3	70	57.2	0	1	270	0.00	29.997 
19:45	67.1	67.1	67.1	69	56.6	0	1	270	0.00	29.997 
19:50	66.9	66.9	66.9	70	56.8	0	0	---	0.00	29.998 
19:55	66.8	66.8	66.8	72	57.5	0	0	---	0.00	30.000 
20:00	66.6	66.6	66.6	73	57.7	0	0	---	0.00	30.001 
20:05	66.6	66.6	66.6	72	57.3	0	1	270	0.00	30.001 
20:10	66.4	66.4	66.4	72	57.1	0	2	270	0.00	30.005 
20:15	66.3	66.3	66.3	72	57.0	0	1	270	0.00	30.008 
20:20	66.3	66.3	66.3	72	57.0	0	0	---	0.00	30.007 
20:25	66.1	66.1	66.1	73	57.2	1	2	270	0.00	30.010 
20:30	66.0	66.0	66.0	72	56.7	1	3	68	0.00	30.011 
20:35	65.8	65.8	65.8	73	56.9	2	4	90	0.00	30.008 
20:40	65.5	65.5	65.5	74	57.0	2	5	90	0.00	30.009 
20:45	65.3	65.3	65.3	75	57.2	2	7	112	0.00	30.007 
20:50	65.0	65.0	65.0	76	57.2	3	7	112	0.00	30.003 
20:55	64.5	64.5	64.5	76	56.8	2	5	90	0.00	30.006 
21:00	64.2	64.2	64.2	77	56.8	2	4	90	0.00	30.011 
21:05	63.5	63.5	63.5	76	55.8	3	5	90	0.00	30.010 
21:10	62.9	62.9	62.9	74	54.5	3	10	90	0.00	30.012 
21:15	62.6	62.6	62.6	74	54.2	3	6	90	0.00	30.013 
21:20	62.1	62.1	62.1	74	53.7	3	5	112	0.00	30.016 
21:25	61.6	61.6	61.6	74	53.2	3	6	90	0.00	30.021 
21:30	61.3	61.3	61.3	74	52.9	3	6	90	0.00	30.025 
21:35	61.2	61.2	61.2	74	52.8	3	9	90	0.00	30.024 
21:40	60.7	60.7	60.7	75	52.7	3	5	90	0.00	30.026 
21:45	60.4	60.4	60.4	74	52.1	3	10	90	0.00	30.029 
21:50	59.9	59.9	59.9	73	51.2	4	10	112	0.00	30.031 
21:55	59.5	59.5	59.5	73	50.8	3	7	90	0.00	30.032 
22:00	59.2	59.2	59.2	73	50.5	3	6	90	0.00	30.034 
22:05	58.7	58.7	58.7	74	50.4	3	7	90	0.00	30.038 
22:10	58.6	58.6	58.6	74	50.3	3	7	90	0.00	30.038 
22:15	58.3	58.3	58.3	74	50.0	3	9	68	0.00	30.046 
22:20	58.0	58.0	58.0	73	49.4	3	7	112	0.00	30.045 
22:25	57.5	57.5	57.5	73	48.9	3	6	112	0.00	30.043 
22:30	57.2	57.2	57.2	74	49.0	3	7	90	0.00	30.045 
22:35	57.0	57.0	57.0	74	48.8	3	7	90	0.00	30.045 
22:40	56.7	56.7	56.7	74	48.5	3	9	90	0.00	30.047 
22:45	56.5	56.5	56.5	75	48.7	2	6	112	0.00	30.048 
22:50	56.3	56.3	56.3	75	48.5	3	6	90	0.00	30.049 
22:55	56.0	56.0	56.0	75	48.2	3	7	90	0.00	30.050 
23:00	55.9	55.9	55.9	73	47.4	3	6	90	0.00	30.049 
23:05	55.7	55.7	55.7	76	48.3	3	6	90	0.00	30.048 
23:10	55.6	55.6	55.6	76	48.2	2	6	90	0.00	30.048 
23:15	55.4	55.4	55.4	76	48.0	2	5	112	0.00	30.050 
23:20	55.3	55.3	55.3	77	48.2	3	5	90	0.00	30.050 
23:25	55.1	55.1	55.1	76	47.7	2	5	90	0.00	30.053 
23:30	54.8	54.8	54.8	76	47.4	4	9	90	0.00	30.054 
23:35	54.5	54.5	54.5	76	47.1	3	10	90	0.00	30.056 
23:40	54.4	54.4	54.4	77	47.3	1	5	112	0.00	30.059 
23:45	54.1	54.1	54.1	77	47.0	3	7	90	0.00	30.064 
23:50	53.9	53.9	53.9	77	46.9	2	7	112	0.00	30.064 
23:55	53.6	53.6	53.6	77	46.6	3	6	112	0.00	30.064 

CoCoRaHS
IN-AL-39
A2 Web Hosting
Creative Commons License
GoDaddy
Look for:

loaded 2017-12-13 09:48:49 • last modified 2010-11-18 10:43:29
Privacy PolicyDisclaimer
• wx.awcolley.com is powered by PmWiki v.2002016 •
• all content (unless otherwise noted) © 2017 A W Colley